Bookmark and Share
Track history (hours):
 

Loodiep

Last reported at 2014-Apr-21 11:25 UTC. Time now 2014-Apr-21 12:23 UTC.
Position N 53°29' W 003°25'.

Length 108 m; draft 7.3 m.

Type: Cargo ship. MMSI: 636015263.

NotesDate/timePositionNaut miles runAvg speedWind from/ knotsBaromVisibWave heightAir tempDewpointWater temp
2014-Apr-21 11:25N 53°29' W 003°25'0 0.1
2014-Apr-21 09:12N 53°29' W 003°25'0 0.0
2014-Apr-21 08:18N 53°29' W 003°25'0 0.0
2014-Apr-20 11:09N 53°29' W 003°25'0 0.0
2014-Apr-19 23:27N 53°29' W 003°25'0 0.0
2014-Apr-19 21:15N 53°29' W 003°25'0 0.0
2014-Apr-19 05:27N 53°29' W 003°26'0 0.0
2014-Apr-19 00:30N 53°29' W 003°25'0 0.0
2014-Apr-18 23:33N 53°29' W 003°25'0 0.0
2014-Apr-18 22:30N 53°29' W 003°25'0 0.0
2014-Apr-18 21:27N 53°29' W 003°25'0 0.0
2014-Apr-18 20:33N 53°29' W 003°25'0 0.1
2014-Apr-18 19:27N 53°29' W 003°26'0 0.0
2014-Apr-18 08:09N 53°29' W 003°25'0 0.0
2014-Apr-17 23:12N 53°29' W 003°25'0 0.0
2014-Apr-17 22:30N 53°29' W 003°25'0 0.0
2014-Apr-17 18:21N 53°29' W 003°25'0 0.0
2014-Apr-17 06:18N 53°29' W 003°25'0 0.1
2014-Apr-17 05:33N 53°29' W 003°25'0 0.1
2014-Apr-17 04:30N 53°29' W 003°25'0 0.0
2014-Apr-17 03:06N 53°29' W 003°25'0 0.0
2014-Apr-17 02:24N 53°29' W 003°25'0 0.0
2014-Apr-17 01:30N 53°29' W 003°25'0 0.1
2014-Apr-17 00:33N 53°29' W 003°25'0 0.1
2014-Apr-16 23:30N 53°29' W 003°25'0 0.0
2014-Apr-16 22:21N 53°29' W 003°25'0 0.0
2014-Apr-16 21:18N 53°29' W 003°25'0 0.0
2014-Apr-16 20:12N 53°29' W 003°25'0 0.0
2014-Apr-16 19:30N 53°29' W 003°25'0 0.1
2014-Apr-16 18:06N 53°29' W 003°25'0 0.0
2014-Apr-16 17:18N 53°29' W 003°25'0 0.0
2014-Apr-16 16:30N 53°29' W 003°25'0 0.0
2014-Apr-16 12:09N 53°29' W 003°25'0 0.0
2014-Apr-16 11:30N 53°29' W 003°25'0 0.1
2014-Apr-16 10:30N 53°29' W 003°25'0 0.0
2014-Apr-16 08:09N 53°29' W 003°25'5 7.1
2014-Apr-16 07:29N 53°31' W 003°33'  
2014-Apr-12 00:24N 38°12' W 009°47'8 9.7
2014-Apr-11 23:33N 38°04' W 009°44'10 9.6
2014-Apr-11 22:28N 37°54' W 009°42'9 9.7
2014-Apr-11 21:32N 37°45' W 009°40'11 9.8
2014-Apr-11 20:25N 37°34' W 009°36'11 9.8
2014-Apr-11 19:18N 37°24' W 009°33'7 9.9
2014-Apr-11 18:33N 37°16' W 009°31'10 9.8
2014-Apr-11 17:28N 37°06' W 009°28'11 9.7
2014-Apr-11 16:19N 36°55' W 009°24'8 9.9
2014-Apr-11 15:30N 36°48' W 009°20'2210.1
2014-Apr-11 13:17N 36°37' W 008°56'  

Dump ship's entire track history

sailing weather and tide predictions

Loodiep — A8ZO7 — position and weather